createdAt,value
2022-09-10T00:01:50.155Z,76432.50
2022-09-10T00:04:16.963Z,76434.50
2022-09-10T00:06:43.883Z,76432.50
2022-09-10T00:09:11.511Z,76430.50
2022-09-10T00:11:39.623Z,76430.50
2022-09-10T00:14:07.271Z,76428.50
2022-09-10T00:16:33.820Z,76432.50
2022-09-10T00:19:01.309Z,76430.50
2022-09-10T00:21:27.710Z,76430.50
2022-09-10T00:23:54.391Z,76432.50
2022-09-10T00:26:22.411Z,76434.50
2022-09-10T00:28:49.787Z,76430.50
2022-09-10T00:31:16.300Z,76430.50
2022-09-10T00:33:42.844Z,76432.50
2022-09-10T00:36:17.228Z,76434.50
2022-09-10T00:38:43.741Z,76436.53
2022-09-10T00:41:10.064Z,76436.53
2022-09-10T00:43:46.559Z,76432.50
2022-09-10T00:46:14.078Z,76438.53
2022-09-10T00:48:40.459Z,76434.50
2022-09-10T00:51:06.820Z,76432.50
2022-09-10T00:53:33.459Z,76430.50
2022-09-10T00:56:02.686Z,76430.50
2022-09-10T00:58:29.412Z,76430.50
2022-09-10T01:01:00.063Z,76428.50
2022-09-10T01:03:29.322Z,76430.50
2022-09-10T01:05:56.866Z,76428.50
2022-09-10T01:08:23.179Z,76434.50
2022-09-10T01:11:12.228Z,76432.50
2022-09-10T01:13:44.462Z,76434.50
2022-09-10T01:16:10.870Z,76430.50
2022-09-10T01:18:55.967Z,76428.50
2022-09-10T01:21:34.383Z,76434.50
2022-09-10T01:24:19.651Z,76430.50
2022-09-10T01:27:06.214Z,76426.50
2022-09-10T01:29:39.098Z,76426.50
2022-09-10T01:32:10.618Z,76432.50
2022-09-10T01:34:41.796Z,76430.50
2022-09-10T01:37:12.290Z,76430.50
2022-09-10T01:39:39.423Z,76426.50
2022-09-10T01:42:06.346Z,76422.50
2022-09-10T01:44:46.014Z,76418.50
2022-09-10T01:47:15.482Z,76420.50
2022-09-10T01:49:54.182Z,76418.50
2022-09-10T01:52:43.915Z,76418.50
2022-09-10T01:55:21.923Z,76420.50
2022-09-10T01:57:59.637Z,76416.50
2022-09-10T02:00:26.682Z,76412.50
2022-09-10T02:02:56.010Z,76410.50
2022-09-10T02:05:23.470Z,76414.50
2022-09-10T02:07:52.309Z,76418.50
2022-09-10T02:10:18.668Z,76424.50
2022-09-10T02:12:45.634Z,76416.50
2022-09-10T02:15:12.710Z,76426.50
2022-09-10T02:17:39.907Z,76426.50
2022-09-10T02:20:08.358Z,76430.50
2022-09-10T02:22:36.406Z,76426.50
2022-09-10T02:25:03.798Z,76432.50
2022-09-10T02:27:30.188Z,76434.50
2022-09-10T02:29:57.523Z,76432.50
2022-09-10T02:32:24.018Z,76438.53
2022-09-10T02:34:50.383Z,76436.53
2022-09-10T02:37:16.911Z,76434.50
2022-09-10T02:39:45.488Z,76438.53
2022-09-10T02:42:14.322Z,76434.50
2022-09-10T02:44:40.914Z,76434.50
2022-09-10T02:47:07.245Z,76438.53
2022-09-10T02:49:34.727Z,76444.53
2022-09-10T02:52:02.863Z,76442.53
2022-09-10T02:54:29.524Z,76442.53
2022-09-10T02:56:56.707Z,76442.53
2022-09-10T02:59:23.673Z,76438.53
2022-09-10T03:01:50.086Z,76436.53
2022-09-10T03:04:17.153Z,76430.50
2022-09-10T03:06:43.511Z,76430.50
2022-09-10T03:09:10.010Z,76434.50
2022-09-10T03:11:40.739Z,76430.50
2022-09-10T03:14:08.396Z,76430.50
2022-09-10T03:16:35.067Z,76422.50
2022-09-10T03:19:01.470Z,76422.50
2022-09-10T03:21:28.828Z,76430.50
2022-09-10T03:23:56.994Z,76426.50
2022-09-10T03:26:25.401Z,76422.50
2022-09-10T03:28:52.084Z,76428.50
2022-09-10T03:31:18.633Z,76428.50
2022-09-10T03:33:46.252Z,76432.50
2022-09-10T03:36:13.395Z,76430.50
2022-09-10T03:38:40.145Z,76430.50
2022-09-10T03:41:06.532Z,76428.50
2022-09-10T03:43:32.863Z,76434.50
2022-09-10T03:45:59.678Z,76428.50
2022-09-10T03:48:26.166Z,76428.50
2022-09-10T03:50:52.568Z,76428.50
2022-09-10T03:53:19.137Z,76426.50
2022-09-10T03:55:46.691Z,76426.50
2022-09-10T03:58:13.421Z,76426.50
2022-09-10T04:00:39.843Z,76426.50
2022-09-10T04:03:06.503Z,76428.50
2022-09-10T04:05:33.091Z,76426.50
2022-09-10T04:07:59.805Z,76424.50
2022-09-10T04:10:26.908Z,76426.50
2022-09-10T04:12:53.576Z,76426.50
2022-09-10T04:15:20.467Z,76424.50
2022-09-10T04:17:47.304Z,76426.50
2022-09-10T04:20:13.653Z,76422.50
2022-09-10T04:22:40.015Z,76426.50
2022-09-10T04:25:06.471Z,76430.50
2022-09-10T04:27:32.795Z,76430.50
2022-09-10T04:29:59.169Z,76430.50
2022-09-10T04:32:25.492Z,76434.50
2022-09-10T04:34:51.815Z,76440.53
2022-09-10T04:37:19.534Z,76446.53
2022-09-10T04:39:46.066Z,76444.53
2022-09-10T04:42:13.804Z,76446.53
2022-09-10T04:44:40.157Z,76446.53
2022-09-10T04:47:06.561Z,76442.53
2022-09-10T04:49:32.912Z,76442.53
2022-09-10T04:51:59.254Z,76438.53
2022-09-10T04:54:25.971Z,76438.53
2022-09-10T04:56:52.331Z,76440.53
2022-09-10T04:59:18.731Z,76438.53
2022-09-10T05:01:45.087Z,76438.53
2022-09-10T05:04:11.422Z,76438.53
2022-09-10T05:06:37.796Z,76440.53
2022-09-10T05:09:04.194Z,76442.53
2022-09-10T05:11:31.441Z,76448.53
2022-09-10T05:13:58.431Z,76440.53
2022-09-10T05:16:24.833Z,76438.53
2022-09-10T05:18:51.265Z,76438.53
2022-09-10T05:21:18.418Z,76442.53
2022-09-10T05:23:45.167Z,76446.53
2022-09-10T05:26:12.104Z,76450.53
2022-09-10T05:28:38.883Z,76446.53
2022-09-10T05:31:07.311Z,76440.53
2022-09-10T05:33:33.948Z,76446.53
2022-09-10T05:36:00.270Z,76442.53
2022-09-10T05:38:26.607Z,76442.53
2022-09-10T05:40:53.995Z,76446.53
2022-09-10T05:43:21.084Z,76442.53
2022-09-10T05:45:47.439Z,76440.53
2022-09-10T05:48:13.899Z,76440.53
2022-09-10T05:50:40.342Z,76442.53
2022-09-10T05:53:06.664Z,76438.53
2022-09-10T05:55:33.335Z,76442.53
2022-09-10T05:57:59.689Z,76442.53
2022-09-10T06:00:26.295Z,76446.53
2022-09-10T06:02:53.322Z,76444.53
2022-09-10T06:05:22.859Z,76446.53
2022-09-10T06:07:49.918Z,76442.53
2022-09-10T06:10:16.331Z,76446.53
2022-09-10T06:12:46.627Z,76444.53
2022-09-10T06:15:13.615Z,76448.53
2022-09-10T06:17:40.237Z,76450.53
2022-09-10T06:20:06.993Z,76452.53
2022-09-10T06:22:33.900Z,76450.53
2022-09-10T06:25:00.218Z,76452.53
2022-09-10T06:27:26.618Z,76452.53
2022-09-10T06:29:52.993Z,76456.53
2022-09-10T06:32:19.302Z,76450.53
2022-09-10T06:34:45.723Z,76446.53
2022-09-10T06:37:12.303Z,76446.53
2022-09-10T06:39:38.782Z,76448.53
2022-09-10T06:42:05.265Z,76444.53
2022-09-10T06:44:31.655Z,76448.53
2022-09-10T06:49:44.742Z,76450.53
2022-09-10T06:52:13.999Z,76450.53
2022-09-10T06:54:40.343Z,76448.53
2022-09-10T06:57:06.748Z,76446.53
2022-09-10T06:59:33.113Z,76448.53
2022-09-10T07:02:00.540Z,76450.53
2022-09-10T07:04:26.916Z,76454.53
2022-09-10T07:06:53.249Z,76454.53
2022-09-10T07:09:19.755Z,76454.53
2022-09-10T07:11:46.091Z,76454.53
2022-09-10T07:14:12.711Z,76454.53
2022-09-10T07:16:42.160Z,76454.53
2022-09-10T07:19:13.320Z,76454.53
2022-09-10T07:21:39.757Z,76454.53
2022-09-10T07:24:06.189Z,76458.53
2022-09-10T07:26:32.660Z,76458.53
2022-09-10T07:28:59.143Z,76458.53
2022-09-10T07:31:29.876Z,76454.53
2022-09-10T07:34:00.628Z,76454.53
2022-09-10T07:36:28.238Z,76454.53
2022-09-10T07:38:55.510Z,76450.53
2022-09-10T07:41:21.994Z,76454.53
2022-09-10T07:43:49.531Z,76454.53
2022-09-10T07:46:20.484Z,76456.53
2022-09-10T07:48:54.343Z,76454.53
2022-09-10T07:51:21.570Z,76452.53
2022-09-10T07:53:51.482Z,76450.53
2022-09-10T07:56:17.884Z,76450.53
2022-09-10T07:58:44.810Z,76450.53
2022-09-10T08:01:12.414Z,76458.53
2022-09-10T08:03:39.935Z,76458.53
2022-09-10T08:06:06.991Z,76462.53
2022-09-10T08:08:35.379Z,76468.53
2022-09-10T08:11:11.871Z,76466.53
2022-09-10T08:13:42.453Z,76462.53
2022-09-10T08:16:10.454Z,76454.53
2022-09-10T08:18:37.346Z,76454.53
2022-09-10T08:21:04.491Z,76452.53
2022-09-10T08:23:31.335Z,76450.53
2022-09-10T08:25:58.290Z,76446.53
2022-09-10T08:28:25.788Z,76442.53
2022-09-10T08:30:57.028Z,76442.53
2022-09-10T08:33:23.899Z,76450.53
2022-09-10T08:35:57.242Z,76450.53
2022-09-10T08:38:29.195Z,76454.53
2022-09-10T08:40:57.408Z,76448.53
2022-09-10T08:43:31.479Z,76446.53
2022-09-10T08:46:01.798Z,76438.53
2022-09-10T08:48:30.766Z,76442.53
2022-09-10T08:51:00.355Z,76436.53
2022-09-10T08:53:45.388Z,76432.50
2022-09-10T08:56:15.314Z,76430.50
2022-09-10T08:58:47.749Z,76426.50
2022-09-10T09:01:42.425Z,76428.50
2022-09-10T09:04:17.907Z,76426.50
2022-09-10T09:06:47.034Z,76422.50
2022-09-10T09:09:15.730Z,76426.50
2022-09-10T09:11:45.091Z,76426.50
2022-09-10T09:14:17.427Z,76426.50
2022-09-10T09:16:46.823Z,76430.50
2022-09-10T09:19:20.374Z,76426.50
2022-09-10T09:22:01.556Z,76422.50
2022-09-10T09:24:49.403Z,76422.50
2022-09-10T09:27:16.814Z,76422.50
2022-09-10T09:29:46.191Z,76424.50
2022-09-10T09:32:15.977Z,76424.50
2022-09-10T09:34:46.115Z,76426.50
2022-09-10T09:37:17.559Z,76430.50
2022-09-10T09:39:53.723Z,76430.50
2022-09-10T09:42:31.204Z,76430.50
2022-09-10T09:44:57.572Z,76432.50
2022-09-10T09:47:23.923Z,76430.50
2022-09-10T09:49:50.390Z,76428.50
2022-09-10T09:52:24.825Z,76426.50
2022-09-10T09:55:15.594Z,76424.50
2022-09-10T09:57:42.970Z,76426.50
2022-09-10T10:00:28.154Z,76422.50
2022-09-10T10:02:54.600Z,76420.50
2022-09-10T10:05:24.736Z,76422.50
2022-09-10T10:07:51.158Z,76418.50
2022-09-10T10:10:24.603Z,76418.50
2022-09-10T10:12:52.897Z,76424.50
2022-09-10T10:15:38.827Z,76426.50
2022-09-10T10:18:25.524Z,76430.50
2022-09-10T10:21:11.235Z,76430.50
2022-09-10T10:23:38.524Z,76430.50
2022-09-10T10:26:23.318Z,76430.50
2022-09-10T10:29:07.033Z,76426.50
2022-09-10T10:31:34.939Z,76430.50
2022-09-10T10:34:01.263Z,76426.50
2022-09-10T10:36:34.718Z,76432.50
2022-09-10T10:39:07.463Z,76426.50
2022-09-10T10:42:04.373Z,76426.50
2022-09-10T10:44:41.859Z,76426.50
2022-09-10T10:47:26.231Z,76422.50
2022-09-10T10:49:53.308Z,76422.50
2022-09-10T10:52:38.294Z,76418.50
2022-09-10T10:55:16.820Z,76418.50
2022-09-10T10:57:49.371Z,76418.50
2022-09-10T11:00:17.392Z,76410.50
2022-09-10T11:02:56.035Z,76414.50
2022-09-10T11:05:31.604Z,76416.50
2022-09-10T11:08:00.047Z,76420.50
2022-09-10T11:10:31.483Z,76422.50
2022-09-10T11:13:00.947Z,76422.50
2022-09-10T11:15:33.455Z,76418.50
2022-09-10T11:18:14.487Z,76414.50
2022-09-10T11:20:42.749Z,76416.50
2022-09-10T11:23:22.155Z,76414.50
2022-09-10T11:26:08.789Z,76414.50
2022-09-10T11:28:41.280Z,76416.50
2022-09-10T11:31:13.011Z,76414.50
2022-09-10T11:33:55.533Z,76406.50
2022-09-10T11:36:42.017Z,76410.50
2022-09-10T11:39:17.116Z,76410.50
2022-09-10T11:41:46.679Z,76406.50
2022-09-10T11:44:16.435Z,76406.50
2022-09-10T11:46:50.222Z,76402.50
2022-09-10T11:49:22.963Z,76404.50
2022-09-10T11:51:50.069Z,76402.50
2022-09-10T11:54:18.103Z,76412.50
2022-09-10T11:57:03.077Z,76406.50
2022-09-10T11:59:44.896Z,76404.50
2022-09-10T12:02:36.234Z,76394.50
2022-09-10T12:05:19.292Z,76388.47
2022-09-10T12:07:52.343Z,76382.47
2022-09-10T12:10:23.132Z,76390.47
2022-09-10T12:12:50.323Z,76384.47
2022-09-10T12:15:21.549Z,76380.47
2022-09-10T12:17:50.581Z,76382.47
2022-09-10T12:20:25.532Z,76382.47
2022-09-10T12:22:54.851Z,76382.47
2022-09-10T12:25:21.195Z,76382.47
2022-09-10T12:27:49.559Z,76384.47
2022-09-10T12:30:25.139Z,76378.47
2022-09-10T12:32:53.437Z,76378.47
2022-09-10T12:35:32.733Z,76374.47
2022-09-10T12:38:17.712Z,76374.47
2022-09-10T12:40:45.234Z,76374.47
2022-09-10T12:43:31.512Z,76376.47
2022-09-10T12:46:02.963Z,76372.47
2022-09-10T12:48:29.894Z,76374.47
2022-09-10T12:50:58.891Z,76378.47
2022-09-10T12:53:31.343Z,76370.47
2022-09-10T12:56:02.140Z,76370.47
2022-09-10T12:58:46.311Z,76368.47
2022-09-10T13:01:21.399Z,76358.47
2022-09-10T13:03:54.738Z,76358.47
2022-09-10T13:06:33.541Z,76360.47
2022-09-10T13:08:59.943Z,76358.47
2022-09-10T13:11:29.056Z,76360.47
2022-09-10T13:14:01.183Z,76362.47
2022-09-10T13:16:27.926Z,76354.47
2022-09-10T13:19:14.204Z,76364.47
2022-09-10T13:21:40.544Z,76362.47
2022-09-10T13:24:25.532Z,76362.47
2022-09-10T13:27:02.385Z,76362.47
2022-09-10T13:29:40.118Z,76358.47
2022-09-10T13:32:27.167Z,76362.47
2022-09-10T13:34:53.496Z,76354.47
2022-09-10T13:37:40.281Z,76358.47
2022-09-10T13:40:25.511Z,76354.47
2022-09-10T13:43:10.250Z,76358.47
2022-09-10T13:45:41.398Z,76354.47
2022-09-10T13:48:17.450Z,76358.47
2022-09-10T13:51:02.656Z,76358.47
2022-09-10T13:53:30.050Z,76356.47
2022-09-10T13:55:58.625Z,76354.47
2022-09-10T13:58:28.567Z,76356.47
2022-09-10T14:01:00.965Z,76354.47
2022-09-10T14:03:32.387Z,76356.47
2022-09-10T14:06:01.847Z,76358.47
2022-09-10T14:08:32.814Z,76352.47
2022-09-10T14:11:02.900Z,76354.47
2022-09-10T14:13:36.891Z,76358.47
2022-09-10T14:16:05.121Z,76358.47
2022-09-10T14:18:52.387Z,76356.47
2022-09-10T14:21:26.811Z,76354.47
2022-09-10T14:23:57.187Z,76356.47
2022-09-10T14:26:26.283Z,76358.47
2022-09-10T14:28:59.634Z,76354.47
2022-09-10T14:31:26.550Z,76350.47
2022-09-10T14:33:53.762Z,76346.47
2022-09-10T14:36:21.800Z,76342.44
2022-09-10T14:39:03.518Z,76330.44
2022-09-10T14:41:31.042Z,76334.44
2022-09-10T14:44:12.807Z,76330.44
2022-09-10T14:46:46.727Z,76334.44
2022-09-10T14:49:17.444Z,76334.44
2022-09-10T14:51:43.782Z,76338.44
2022-09-10T14:54:14.970Z,76338.44
2022-09-10T14:56:43.879Z,76330.44
2022-09-10T14:59:30.479Z,76330.44
2022-09-10T15:01:57.616Z,76336.44
2022-09-10T15:04:26.750Z,76332.44
2022-09-10T15:06:53.623Z,76326.44
2022-09-10T15:09:20.489Z,76326.44
2022-09-10T15:11:53.531Z,76330.44
2022-09-10T15:14:20.698Z,76326.44
2022-09-10T15:16:48.104Z,76332.44
2022-09-10T15:19:14.454Z,76330.44
2022-09-10T15:21:40.779Z,76334.44
2022-09-10T15:24:07.146Z,76334.44
2022-09-10T15:26:33.571Z,76334.44
2022-09-10T15:29:00.391Z,76332.44
2022-09-10T15:31:32.064Z,76338.44
2022-09-10T15:33:59.242Z,76334.44
2022-09-10T15:36:25.967Z,76334.44
2022-09-10T15:38:52.515Z,76342.44
2022-09-10T15:41:19.271Z,76340.44
2022-09-10T15:43:46.086Z,76342.44
2022-09-10T15:46:13.352Z,76346.47
2022-09-10T15:48:40.061Z,76344.47
2022-09-10T15:51:09.244Z,76350.47
2022-09-10T15:53:35.979Z,76350.47
2022-09-10T15:56:03.216Z,76350.47
2022-09-10T15:58:29.615Z,76350.47
2022-09-10T16:01:00.635Z,76346.47
2022-09-10T16:03:26.991Z,76348.47
2022-09-10T16:05:53.375Z,76354.47
2022-09-10T16:08:19.777Z,76360.47
2022-09-10T16:10:46.135Z,76362.47
2022-09-10T16:13:12.460Z,76362.47
2022-09-10T16:15:39.539Z,76362.47
2022-09-10T16:18:06.537Z,76370.47
2022-09-10T16:20:33.323Z,76366.47
2022-09-10T16:22:59.724Z,76370.47
2022-09-10T16:25:26.082Z,76366.47
2022-09-10T16:27:52.534Z,76366.47
2022-09-10T16:30:18.827Z,76368.47
2022-09-10T16:32:46.167Z,76362.47
2022-09-10T16:35:12.536Z,76368.47
2022-09-10T16:37:39.043Z,76370.47
2022-09-10T16:40:05.676Z,76372.47
2022-09-10T16:42:32.039Z,76374.47
2022-09-10T16:44:58.446Z,76374.47
2022-09-10T16:47:24.814Z,76378.47
2022-09-10T16:49:51.135Z,76378.47
2022-09-10T16:52:17.604Z,76386.47
2022-09-10T16:54:46.080Z,76386.47
2022-09-10T16:57:12.386Z,76390.47
2022-09-10T16:59:38.706Z,76386.47
2022-09-10T17:02:05.468Z,76388.47
2022-09-10T17:04:34.638Z,76382.47
2022-09-10T17:07:00.967Z,76384.47
2022-09-10T17:09:27.396Z,76390.47
2022-09-10T17:11:53.887Z,76388.47
2022-09-10T17:14:20.265Z,76388.47
2022-09-10T17:16:48.052Z,76390.47
2022-09-10T17:19:18.640Z,76394.50
2022-09-10T17:21:48.815Z,76394.50
2022-09-10T17:24:15.143Z,76394.50
2022-09-10T17:26:41.674Z,76398.50
2022-09-10T17:29:09.439Z,76402.50
2022-09-10T17:31:35.844Z,76406.50
2022-09-10T17:34:03.727Z,76402.50
2022-09-10T17:36:30.673Z,76404.50
2022-09-10T17:38:59.198Z,76404.50
2022-09-10T17:41:26.703Z,76406.50
2022-09-10T17:43:53.062Z,76406.50
2022-09-10T17:46:21.386Z,76404.50
2022-09-10T17:48:48.371Z,76406.50
2022-09-10T17:51:16.154Z,76410.50
2022-09-10T17:53:43.425Z,76414.50
2022-09-10T17:56:11.547Z,76410.50
2022-09-10T17:58:38.486Z,76420.50
2022-09-10T18:01:07.968Z,76420.50
2022-09-10T18:03:35.259Z,76426.50
2022-09-10T18:06:05.724Z,76426.50
2022-09-10T18:08:33.055Z,76426.50
2022-09-10T18:11:04.527Z,76432.50
2022-09-10T18:13:30.963Z,76438.53
2022-09-10T18:15:57.452Z,76434.50
2022-09-10T18:18:23.808Z,76438.53
2022-09-10T18:20:50.251Z,76436.53
2022-09-10T18:23:16.679Z,76442.53
2022-09-10T18:25:47.853Z,76446.53
2022-09-10T18:28:16.146Z,76448.53
2022-09-10T18:30:42.541Z,76452.53
2022-09-10T18:33:11.647Z,76454.53
2022-09-10T18:35:38.002Z,76454.53
2022-09-10T18:38:04.795Z,76454.53
2022-09-10T18:40:31.170Z,76456.53
2022-09-10T18:42:57.790Z,76450.53
2022-09-10T18:45:24.101Z,76448.53
2022-09-10T18:47:50.485Z,76454.53
2022-09-10T18:50:16.973Z,76456.53
2022-09-10T18:52:43.372Z,76458.53
2022-09-10T18:55:09.780Z,76468.53
2022-09-10T18:57:36.616Z,76454.53
2022-09-10T19:00:03.290Z,76458.53
2022-09-10T19:02:29.742Z,76462.53
2022-09-10T19:05:12.552Z,76458.53
2022-09-10T19:07:39.130Z,76456.53
2022-09-10T19:10:07.143Z,76458.53
2022-09-10T19:12:33.750Z,76462.53
2022-09-10T19:15:00.527Z,76456.53
2022-09-10T19:17:26.933Z,76456.53
2022-09-10T19:19:53.255Z,76456.53
2022-09-10T19:22:19.691Z,76454.53
2022-09-10T19:24:55.725Z,76454.53
2022-09-10T19:27:23.154Z,76454.53
2022-09-10T19:29:50.330Z,76446.53
2022-09-10T19:32:17.178Z,76444.53
2022-09-10T19:34:43.775Z,76446.53
2022-09-10T19:37:10.211Z,76434.50
2022-09-10T19:39:36.702Z,76430.50
2022-09-10T19:42:03.363Z,76430.50
2022-09-10T19:44:29.770Z,76428.50
2022-09-10T19:46:56.129Z,76434.50
2022-09-10T19:49:22.558Z,76430.50
2022-09-10T19:51:48.990Z,76430.50
2022-09-10T19:54:16.121Z,76434.50
2022-09-10T19:56:42.830Z,76430.50
2022-09-10T19:59:09.939Z,76434.50
2022-09-10T20:01:40.817Z,76430.50
2022-09-10T20:04:09.079Z,76430.50
2022-09-10T20:06:35.812Z,76434.50
2022-09-10T20:09:02.674Z,76434.50
2022-09-10T20:11:31.508Z,76430.50
2022-09-10T20:13:59.482Z,76430.50
2022-09-10T20:16:26.229Z,76438.53
2022-09-10T20:18:52.664Z,76434.50
2022-09-10T20:21:20.256Z,76438.53
2022-09-10T20:23:47.524Z,76436.53
2022-09-10T20:26:18.626Z,76444.53
2022-09-10T20:28:45.289Z,76446.53
2022-09-10T20:31:13.003Z,76446.53
2022-09-10T20:33:42.330Z,76446.53
2022-09-10T20:36:11.044Z,76446.53
2022-09-10T20:38:38.272Z,76444.53
2022-09-10T20:41:05.791Z,76446.53
2022-09-10T20:43:32.592Z,76446.53
2022-09-10T20:45:59.091Z,76448.53
2022-09-10T20:48:25.932Z,76442.53
2022-09-10T20:50:53.392Z,76448.53
2022-09-10T20:53:19.967Z,76452.53
2022-09-10T20:55:46.300Z,76458.53
2022-09-10T20:58:13.202Z,76456.53
2022-09-10T21:00:40.627Z,76460.53
2022-09-10T21:03:06.940Z,76460.53
2022-09-10T21:05:33.372Z,76460.53
2022-09-10T21:07:59.694Z,76458.53
2022-09-10T21:10:26.024Z,76460.53
2022-09-10T21:12:52.768Z,76452.53
2022-09-10T21:15:19.078Z,76458.53
2022-09-10T21:17:46.821Z,76458.53
2022-09-10T21:20:13.412Z,76460.53
2022-09-10T21:22:39.920Z,76466.53
2022-09-10T21:25:07.407Z,76458.53
2022-09-10T21:27:33.787Z,76462.53
2022-09-10T21:30:00.154Z,76466.53
2022-09-10T21:32:26.533Z,76472.53
2022-09-10T21:34:53.787Z,76466.53
2022-09-10T21:37:20.227Z,76466.53
2022-09-10T21:39:46.768Z,76466.53
2022-09-10T21:42:13.110Z,76468.53
2022-09-10T21:44:39.452Z,76468.53
2022-09-10T21:47:05.835Z,76466.53
2022-09-10T21:49:32.159Z,76470.53
2022-09-10T21:51:58.503Z,76472.53
2022-09-10T21:54:25.442Z,76474.53
2022-09-10T21:56:52.211Z,76474.53
2022-09-10T21:59:19.398Z,76478.53
2022-09-10T22:01:46.495Z,76478.53
2022-09-10T22:04:13.675Z,76480.53
2022-09-10T22:06:40.251Z,76474.53
2022-09-10T22:09:11.453Z,76470.53
2022-09-10T22:11:39.291Z,76470.53
2022-09-10T22:14:07.500Z,76468.53
2022-09-10T22:16:34.819Z,76466.53
2022-09-10T22:19:02.958Z,76466.53
2022-09-10T22:21:29.403Z,76470.53
2022-09-10T22:23:55.890Z,76470.53
2022-09-10T22:26:24.084Z,76468.53
2022-09-10T22:28:54.522Z,76466.53
2022-09-10T22:31:22.433Z,76474.53
2022-09-10T22:33:52.750Z,76466.53
2022-09-10T22:36:20.459Z,76474.53
2022-09-10T22:38:50.855Z,76470.53
2022-09-10T22:41:17.430Z,76476.53
2022-09-10T22:43:43.831Z,76470.53
2022-09-10T22:46:10.630Z,76466.53
2022-09-10T22:48:37.867Z,76468.53
2022-09-10T22:51:05.399Z,76470.53
2022-09-10T22:53:31.773Z,76470.53
2022-09-10T22:55:58.477Z,76474.53
2022-09-10T22:58:26.352Z,76478.53
2022-09-10T23:00:53.412Z,76482.53
2022-09-10T23:03:22.947Z,76482.53
2022-09-10T23:05:49.677Z,76482.53
2022-09-10T23:08:17.095Z,76488.56
2022-09-10T23:10:43.437Z,76486.56
2022-09-10T23:13:09.844Z,76488.56
2022-09-10T23:15:36.450Z,76494.56
2022-09-10T23:18:02.824Z,76494.56
2022-09-10T23:20:29.174Z,76490.56
2022-09-10T23:22:55.498Z,76494.56
2022-09-10T23:25:21.886Z,76498.56
2022-09-10T23:27:48.860Z,76502.56
2022-09-10T23:30:16.098Z,76500.56
2022-09-10T23:32:43.635Z,76502.56
2022-09-10T23:35:10.079Z,76504.56
2022-09-10T23:37:36.523Z,76500.56
2022-09-10T23:40:03.602Z,76502.56
2022-09-10T23:42:31.287Z,76502.56
2022-09-10T23:44:57.614Z,76510.56
2022-09-10T23:47:23.986Z,76502.56
2022-09-10T23:49:50.298Z,76498.56
2022-09-10T23:52:16.644Z,76502.56
2022-09-10T23:54:43.007Z,76504.56
2022-09-10T23:57:09.299Z,76506.56
2022-09-10T23:59:35.619Z,76500.56
